createdAt,value
2022-10-16T00:00:54.057Z,97.96
2022-10-16T00:04:12.027Z,97.86
2022-10-16T00:07:45.466Z,97.96
2022-10-16T00:11:55.938Z,97.96
2022-10-16T00:17:47.500Z,97.96
2022-10-16T00:19:15.950Z,97.96
2022-10-16T00:20:46.613Z,97.96
2022-10-16T00:22:45.500Z,97.96
2022-10-16T00:24:18.681Z,97.96
2022-10-16T00:29:14.606Z,97.96
2022-10-16T00:31:17.638Z,97.86
2022-10-16T00:33:18.503Z,97.86
2022-10-16T00:35:16.636Z,97.86
2022-10-16T00:42:08.904Z,97.81
2022-10-16T00:50:10.256Z,98.02
2022-10-16T00:51:41.011Z,98.02
2022-10-16T00:54:34.365Z,98.11
2022-10-16T01:04:34.525Z,98.43
2022-10-16T01:06:07.105Z,98.52
2022-10-16T01:07:37.063Z,98.52
2022-10-16T01:10:35.629Z,98.73
2022-10-16T01:14:08.788Z,98.83
2022-10-16T01:18:00.562Z,98.73
2022-10-16T01:20:23.509Z,98.83
2022-10-16T01:22:41.611Z,98.93
2022-10-16T01:25:16.563Z,99.04
2022-10-16T01:27:57.557Z,99.14
2022-10-16T01:29:48.186Z,99.24
2022-10-16T01:31:49.712Z,99.24
2022-10-16T01:37:14.313Z,99.24
2022-10-16T01:41:56.935Z,99.44
2022-10-16T01:43:52.982Z,99.54
2022-10-16T01:47:15.369Z,99.54
2022-10-16T01:49:57.161Z,99.54
2022-10-16T01:51:56.070Z,99.65
2022-10-16T01:55:48.908Z,99.75
2022-10-16T01:57:20.792Z,99.79
2022-10-16T01:59:17.844Z,99.85
2022-10-16T02:01:11.206Z,99.90
2022-10-16T02:03:30.847Z,99.99
2022-10-16T02:07:32.298Z,99.99
2022-10-16T02:09:01.201Z,99.99
2022-10-16T02:11:00.373Z,99.99
2022-10-16T02:13:30.084Z,99.99
2022-10-16T02:16:36.187Z,99.99
2022-10-16T02:19:13.246Z,99.99
2022-10-16T02:22:55.477Z,99.99
2022-10-16T02:24:21.586Z,99.99
2022-10-16T02:26:13.285Z,99.99
2022-10-16T02:27:41.251Z,99.99
2022-10-16T02:31:22.178Z,99.99
2022-10-16T02:34:13.544Z,99.99
2022-10-16T02:36:13.177Z,99.99
2022-10-16T02:39:04.056Z,99.99
2022-10-16T02:41:52.005Z,99.99
2022-10-16T02:43:45.796Z,99.99
2022-10-16T03:06:59.159Z,99.99
2022-10-16T03:36:05.022Z,99.99
2022-10-16T03:39:23.179Z,99.99
2022-10-16T04:03:47.990Z,99.99
2022-10-16T05:27:11.227Z,99.99
2022-10-16T05:44:14.412Z,99.99
2022-10-16T06:15:23.568Z,99.99
2022-10-16T06:38:18.354Z,99.99
2022-10-16T06:43:58.797Z,99.99
2022-10-16T06:48:58.446Z,99.99
2022-10-16T06:50:28.423Z,99.99
2022-10-16T06:58:52.629Z,99.99
2022-10-16T07:02:31.404Z,99.99
2022-10-16T07:10:45.529Z,99.99
2022-10-16T07:13:36.505Z,99.99
2022-10-16T07:21:33.014Z,99.99
2022-10-16T07:24:15.262Z,99.99
2022-10-16T07:28:33.360Z,99.99
2022-10-16T07:34:13.590Z,99.99
2022-10-16T07:59:13.899Z,99.82
2022-10-16T08:03:26.161Z,99.77
2022-10-16T08:16:14.476Z,98.00
2022-10-16T08:18:42.342Z,97.80
2022-10-16T08:21:08.563Z,97.49
2022-10-16T08:23:07.282Z,97.19
2022-10-16T08:25:56.916Z,96.73
2022-10-16T08:28:14.663Z,97.04
2022-10-16T08:33:41.029Z,95.78
2022-10-16T08:37:06.576Z,94.15
2022-10-16T08:39:46.466Z,94.21
2022-10-16T09:21:03.499Z,91.74
2022-10-16T09:24:20.234Z,90.79
2022-10-16T09:26:49.094Z,90.48
2022-10-16T09:28:18.054Z,90.18
2022-10-16T09:30:18.135Z,89.57
2022-10-16T09:34:16.536Z,89.67
2022-10-16T09:35:46.371Z,88.96
2022-10-16T09:37:16.605Z,89.47
2022-10-16T09:38:52.077Z,88.86
2022-10-16T09:40:59.027Z,89.06
2022-10-16T09:42:49.874Z,89.06
2022-10-16T09:44:19.081Z,88.05
2022-10-16T09:45:48.698Z,88.05
2022-10-16T09:47:37.492Z,88.05
2022-10-16T09:49:07.383Z,88.72
2022-10-16T09:50:36.312Z,89.32
2022-10-16T09:52:25.200Z,88.62
2022-10-16T09:54:24.041Z,88.21
2022-10-16T09:55:52.965Z,87.87
2022-10-16T09:57:25.382Z,87.56
2022-10-16T10:00:22.709Z,88.13
2022-10-16T10:11:52.382Z,84.61
2022-10-16T10:13:39.300Z,82.69
2022-10-16T10:15:28.000Z,83.05
2022-10-16T10:18:15.908Z,84.67
2022-10-16T10:20:35.659Z,82.31
2022-10-16T10:22:37.398Z,82.27
2022-10-16T10:24:06.535Z,81.87
2022-10-16T10:26:06.573Z,81.26
2022-10-16T10:28:54.708Z,81.62
2022-10-16T10:30:28.341Z,81.42
2022-10-16T10:32:45.086Z,79.10
2022-10-16T10:34:14.004Z,79.50
2022-10-16T10:35:42.863Z,78.03
2022-10-16T10:46:07.349Z,79.81
2022-10-16T10:50:10.124Z,79.13
2022-10-16T10:51:40.204Z,77.78
2022-10-16T10:54:13.313Z,78.05
2022-10-16T10:56:12.294Z,78.45
2022-10-16T10:58:41.265Z,75.43
2022-10-16T11:00:10.527Z,74.89
2022-10-16T11:02:37.667Z,73.68
2022-10-16T11:04:25.724Z,74.45
2022-10-16T11:05:57.142Z,75.72
2022-10-16T11:08:46.771Z,72.53
2022-10-16T11:10:20.220Z,73.00
2022-10-16T11:12:58.017Z,69.53
2022-10-16T11:17:59.262Z,67.65
2022-10-16T11:20:47.734Z,68.52
2022-10-16T11:23:25.839Z,66.95
2022-10-16T11:25:29.709Z,67.32
2022-10-16T11:27:00.209Z,67.72
2022-10-16T11:29:49.635Z,65.99
2022-10-16T11:31:48.615Z,64.28
2022-10-16T11:33:17.318Z,65.78
2022-10-16T11:34:48.678Z,63.61
2022-10-16T11:37:16.587Z,65.31
2022-10-16T11:38:46.497Z,65.82
2022-10-16T11:40:16.499Z,63.98
2022-10-16T11:43:46.080Z,63.95
2022-10-16T11:46:34.801Z,64.42
2022-10-16T11:48:04.652Z,64.92
2022-10-16T11:49:34.320Z,63.68
2022-10-16T11:51:33.624Z,62.58
2022-10-16T11:53:02.589Z,63.56
2022-10-16T11:56:20.297Z,62.32
2022-10-16T11:58:19.207Z,62.32
2022-10-16T12:00:18.395Z,61.82
2022-10-16T12:01:52.847Z,62.25
2022-10-16T12:04:56.563Z,63.21
2022-10-16T12:07:16.238Z,63.92
2022-10-16T12:08:45.223Z,62.41
2022-10-16T12:11:34.781Z,64.22
2022-10-16T12:15:15.937Z,64.09
2022-10-16T12:17:30.150Z,61.45
2022-10-16T12:18:58.370Z,60.55
2022-10-16T12:20:57.529Z,59.22
2022-10-16T12:22:59.537Z,60.42
2022-10-16T12:28:23.524Z,59.65
2022-10-16T12:30:33.635Z,58.98
2022-10-16T12:32:19.278Z,59.58
2022-10-16T12:33:43.700Z,58.81
2022-10-16T12:36:44.852Z,60.94
2022-10-16T12:39:40.671Z,61.64
2022-10-16T12:41:13.175Z,60.16
2022-10-16T12:45:35.145Z,61.07
2022-10-16T12:47:06.101Z,61.67
2022-10-16T12:48:48.244Z,62.67
2022-10-16T12:51:13.678Z,62.40
2022-10-16T12:53:02.550Z,63.31
2022-10-16T12:56:04.002Z,63.70
2022-10-16T12:59:04.502Z,63.60
2022-10-16T13:03:27.309Z,63.10
2022-10-16T13:05:38.887Z,63.40
2022-10-16T13:07:27.197Z,62.93
2022-10-16T13:12:08.119Z,63.17
2022-10-16T13:14:16.045Z,64.00
2022-10-16T13:17:38.736Z,62.89
2022-10-16T13:19:30.467Z,61.51
2022-10-16T13:21:32.637Z,62.32
2022-10-16T13:24:19.883Z,64.06
2022-10-16T13:25:50.603Z,64.06
2022-10-16T13:28:55.161Z,64.39
2022-10-16T13:32:00.911Z,65.90
2022-10-16T13:34:41.122Z,65.59
2022-10-16T13:37:21.041Z,65.62
2022-10-16T13:41:42.199Z,65.02
2022-10-16T13:43:13.403Z,66.33
2022-10-16T13:45:01.995Z,65.73
2022-10-16T13:47:29.470Z,65.66
2022-10-16T13:49:47.764Z,66.56
2022-10-16T13:54:04.665Z,67.57
2022-10-16T13:57:27.621Z,67.27
2022-10-16T13:58:58.766Z,67.17
2022-10-16T14:00:27.928Z,68.61
2022-10-16T14:04:27.071Z,66.60
2022-10-16T14:05:54.793Z,67.10
2022-10-16T14:09:28.012Z,67.30
2022-10-16T14:12:16.894Z,67.91
2022-10-16T14:14:57.468Z,68.71
2022-10-16T14:16:27.016Z,68.01
2022-10-16T14:22:35.331Z,66.39
2022-10-16T14:24:27.833Z,67.10
2022-10-16T14:26:15.882Z,66.30
2022-10-16T14:30:21.356Z,68.11
2022-10-16T14:32:10.149Z,68.81
2022-10-16T14:34:58.540Z,68.91
2022-10-16T14:36:28.015Z,69.62
2022-10-16T14:38:04.717Z,69.62
2022-10-16T14:41:26.273Z,68.65
2022-10-16T14:42:54.077Z,67.33
2022-10-16T14:46:43.003Z,67.84
2022-10-16T14:49:44.250Z,68.14
2022-10-16T14:51:13.174Z,68.54
2022-10-16T14:52:41.030Z,69.05
2022-10-16T14:57:31.775Z,69.15
2022-10-16T14:59:32.529Z,69.89
2022-10-16T15:02:03.507Z,70.79
2022-10-16T15:03:32.892Z,71.10
2022-10-16T15:07:18.744Z,69.08
2022-10-16T15:11:37.258Z,71.40
2022-10-16T15:17:37.352Z,72.20
2022-10-16T15:19:06.266Z,72.34
2022-10-16T15:20:35.145Z,72.24
2022-10-16T15:22:23.894Z,72.34
2022-10-16T15:25:31.883Z,72.54
2022-10-16T15:27:20.640Z,71.94
2022-10-16T15:28:51.602Z,72.95
2022-10-16T15:32:10.100Z,73.79
2022-10-16T15:34:56.694Z,74.60
2022-10-16T15:39:40.468Z,75.10
2022-10-16T15:41:08.132Z,74.63
2022-10-16T15:42:58.336Z,75.13
2022-10-16T15:45:44.093Z,76.45
2022-10-16T15:47:13.136Z,76.86
2022-10-16T15:49:02.204Z,77.36
2022-10-16T15:51:22.872Z,76.35
2022-10-16T15:52:54.737Z,76.69
2022-10-16T15:54:23.393Z,77.09
2022-10-16T15:55:59.303Z,77.39
2022-10-16T16:01:37.365Z,78.20
2022-10-16T16:03:54.884Z,77.13
2022-10-16T16:05:25.320Z,77.64
2022-10-16T16:07:13.326Z,77.23
2022-10-16T16:09:42.301Z,77.73
2022-10-16T16:11:11.318Z,78.34
2022-10-16T16:13:29.130Z,79.35
2022-10-16T16:15:47.265Z,79.69
2022-10-16T16:17:16.183Z,79.90
2022-10-16T16:20:28.610Z,80.60
2022-10-16T16:22:48.777Z,81.05
2022-10-16T16:25:37.923Z,81.35
2022-10-16T16:28:13.353Z,81.49
2022-10-16T16:29:43.232Z,81.79
2022-10-16T16:31:12.158Z,81.99
2022-10-16T16:33:30.124Z,82.30
2022-10-16T16:37:01.281Z,82.54
2022-10-16T16:39:00.282Z,82.54
2022-10-16T16:44:33.086Z,82.58
2022-10-16T16:48:44.381Z,83.18
2022-10-16T16:52:06.387Z,83.29
2022-10-16T16:55:13.608Z,83.63
2022-10-16T16:57:01.711Z,83.83
2022-10-16T16:59:31.824Z,84.14
2022-10-16T17:01:37.303Z,84.24
2022-10-16T17:08:53.558Z,84.78
2022-10-16T17:14:10.851Z,85.30
2022-10-16T17:17:47.695Z,85.60
2022-10-16T17:19:16.564Z,85.70
2022-10-16T17:21:21.833Z,85.53
2022-10-16T17:23:23.247Z,85.44
2022-10-16T17:26:59.144Z,85.53
2022-10-16T17:28:25.486Z,85.64
2022-10-16T17:31:12.592Z,85.94
2022-10-16T17:33:32.278Z,86.05
2022-10-16T17:38:57.546Z,86.39
2022-10-16T17:40:26.844Z,86.49
2022-10-16T17:42:29.859Z,86.59
2022-10-16T17:44:22.797Z,86.69
2022-10-16T17:48:42.897Z,87.00
2022-10-16T17:51:14.446Z,87.20
2022-10-16T17:54:16.318Z,87.30
2022-10-16T17:57:34.862Z,87.20
2022-10-16T17:59:03.115Z,87.30
2022-10-16T18:05:04.037Z,87.51
2022-10-16T18:08:30.522Z,87.61
2022-10-16T18:14:21.846Z,87.95
2022-10-16T18:17:35.807Z,88.06
2022-10-16T18:21:56.313Z,88.16
2022-10-16T18:24:03.909Z,88.26
2022-10-16T18:25:34.731Z,88.46
2022-10-16T18:27:07.801Z,88.36
2022-10-16T18:28:50.088Z,88.36
2022-10-16T18:33:32.585Z,88.36
2022-10-16T18:38:56.118Z,88.76
2022-10-16T18:41:27.804Z,88.67
2022-10-16T18:49:01.363Z,88.36
2022-10-16T18:50:57.955Z,88.16
2022-10-16T18:55:50.308Z,87.92
2022-10-16T18:58:30.388Z,87.81
2022-10-16T19:00:24.121Z,87.81
2022-10-16T19:02:16.330Z,87.81
2022-10-16T19:05:39.906Z,87.71
2022-10-16T19:11:26.128Z,87.81
2022-10-16T19:14:07.818Z,87.92
2022-10-16T19:16:21.630Z,87.92
2022-10-16T19:19:52.829Z,88.01
2022-10-16T19:21:22.931Z,88.01
2022-10-16T19:24:18.332Z,88.21
2022-10-16T19:25:48.525Z,88.21
2022-10-16T19:29:28.404Z,88.01
2022-10-16T19:31:21.206Z,88.01
2022-10-16T19:34:11.580Z,87.92
2022-10-16T19:40:50.730Z,87.81
2022-10-16T19:44:14.372Z,87.81
2022-10-16T19:45:43.261Z,87.81
2022-10-16T19:47:22.204Z,87.81
2022-10-16T19:48:51.408Z,87.71
2022-10-16T19:52:05.183Z,87.71
2022-10-16T19:55:25.180Z,87.51
2022-10-16T20:00:23.020Z,87.57
2022-10-16T20:02:29.272Z,87.57
2022-10-16T20:04:28.340Z,87.57
2022-10-16T20:08:22.608Z,87.87
2022-10-16T20:10:15.074Z,87.97
2022-10-16T20:12:38.097Z,88.07
2022-10-16T20:14:26.172Z,88.28
2022-10-16T20:18:25.134Z,88.58
2022-10-16T20:21:28.678Z,88.68
2022-10-16T20:24:46.818Z,88.99
2022-10-16T20:27:23.791Z,89.39
2022-10-16T20:29:22.717Z,89.59
2022-10-16T20:32:31.163Z,89.90
2022-10-16T20:35:51.453Z,90.20
2022-10-16T20:38:59.578Z,90.41
2022-10-16T20:41:59.327Z,90.61
2022-10-16T20:49:39.329Z,90.92
2022-10-16T20:53:48.222Z,91.42
2022-10-16T20:57:07.176Z,91.63
2022-10-16T21:03:28.360Z,91.63
2022-10-16T21:06:48.246Z,91.83
2022-10-16T21:08:18.228Z,91.83
2022-10-16T21:10:30.675Z,91.97
2022-10-16T21:13:19.418Z,92.13
2022-10-16T21:16:56.088Z,92.24
2022-10-16T21:18:26.308Z,92.24
2022-10-16T21:21:11.911Z,92.38
2022-10-16T21:35:49.804Z,92.68
2022-10-16T21:37:21.010Z,92.99
2022-10-16T21:39:22.805Z,92.99
2022-10-16T21:45:34.035Z,93.29
2022-10-16T21:50:42.153Z,93.29
2022-10-16T21:54:04.744Z,93.19
2022-10-16T21:59:02.874Z,93.29
2022-10-16T22:01:42.803Z,93.19
2022-10-16T22:03:32.388Z,93.19
2022-10-16T22:08:16.304Z,93.29
2022-10-16T22:10:06.986Z,93.40
2022-10-16T22:11:37.820Z,93.40
2022-10-16T22:20:28.151Z,93.49
2022-10-16T22:23:20.376Z,93.49
2022-10-16T22:24:54.129Z,93.60
2022-10-16T22:26:43.929Z,93.60
2022-10-16T22:28:16.489Z,93.70
2022-10-16T22:34:12.417Z,93.80
2022-10-16T22:37:46.339Z,94.05
2022-10-16T22:41:43.303Z,94.05
2022-10-16T22:42:51.329Z,94.05
2022-10-16T22:44:51.850Z,94.05
2022-10-16T22:46:27.629Z,94.05
2022-10-16T22:48:31.900Z,94.05
2022-10-16T22:50:19.676Z,93.95
2022-10-16T22:52:13.100Z,94.05
2022-10-16T22:54:38.650Z,93.95
2022-10-16T22:57:43.625Z,94.05
2022-10-16T23:01:17.027Z,94.05
2022-10-16T23:04:28.920Z,93.95
2022-10-16T23:13:37.528Z,94.15
2022-10-16T23:15:05.655Z,94.15
2022-10-16T23:19:26.528Z,94.25
2022-10-16T23:20:56.111Z,94.29
2022-10-16T23:24:47.228Z,94.40
2022-10-16T23:26:19.119Z,94.40
2022-10-16T23:28:17.183Z,94.40
2022-10-16T23:30:41.788Z,94.50
2022-10-16T23:33:15.502Z,94.50
2022-10-16T23:37:12.675Z,94.70
2022-10-16T23:38:43.786Z,94.80
2022-10-16T23:40:11.568Z,95.01
2022-10-16T23:45:31.591Z,95.41
2022-10-16T23:52:08.241Z,95.62
2022-10-16T23:56:22.555Z,95.82
2022-10-16T23:58:42.741Z,95.92
